This is the latest recevied weather packets stored in our database for station/object OK1HOL-13. If no packets are shown the sender has not sent any weather packets the latest 10 day(s).
| Time | Temp. | Humidity | Pressure | Rain* | Wind** | Luminosity | Snow |
|---|---|---|---|---|---|---|---|
| 1778091364 | 17.22° C | 65% | 1004.1 hPa | - | - | 2 W/m² | - |
| 1778090764 | 17.22° C | 66% | 1004.1 hPa | - | - | 4 W/m² | - |
| 1778090164 | 17.78° C | 65% | 1003.9 hPa | - | - | 6 W/m² | - |
| 1778089564 | 17.78° C | 64% | 1003.9 hPa | - | - | 9 W/m² | - |
| 1778088965 | 17.78° C | 62% | 1004.2 hPa | - | - | 16 W/m² | - |
| 1778088364 | 18.33° C | 60% | 1004.2 hPa | - | - | 19 W/m² | - |
| 1778087764 | 18.33° C | 63% | 1004.2 hPa | - | - | 21 W/m² | - |
| 1778087165 | 17.78° C | 63% | 1004.1 hPa | - | - | 15 W/m² | - |
| 1778086564 | 17.78° C | 62% | 1004.1 hPa | - | - | 14 W/m² | - |
| 1778085964 | 17.78° C | 62% | 1004.1 hPa | - | - | 16 W/m² | - |
| 1778085364 | 18.33° C | 61% | 1004.2 hPa | - | - | 30 W/m² | - |
| 1778084764 | 18.33° C | 59% | 1004.4 hPa | - | - | 44 W/m² | - |
| 1778084164 | 18.89° C | 58% | 1004.3 hPa | - | - | 47 W/m² | - |
| 1778083564 | 18.33° C | 59% | 1004.2 hPa | - | - | 57 W/m² | - |
| 1778082964 | 18.33° C | 62% | 1004.5 hPa | - | - | 46 W/m² | - |
| 1778082364 | 18.33° C | 61% | 1004.6 hPa | - | - | 142 W/m² | - |
| 1778081765 | 18.33° C | 59% | 1004.7 hPa | - | - | 9 W/m² | - |
| 1778081164 | 18.89° C | 57% | 1004.8 hPa | - | - | 9 W/m² | - |
| 1778080564 | 19.44° C | 51% | 1004.8 hPa | - | - | 10 W/m² | - |
| 1778079964 | 20° C | 51% | 1004.7 hPa | - | - | 13 W/m² | - |
| 1778079364 | 21.11° C | 48% | 1004.8 hPa | - | - | 14 W/m² | - |
| 1778078764 | 21.67° C | 44% | 1004.8 hPa | - | - | 16 W/m² | - |
| 1778078164 | 22.78° C | 42% | 1004.8 hPa | - | - | 25 W/m² | - |
| 1778077564 | 22.78° C | 41% | 1005 hPa | - | - | 59 W/m² | - |
| 1778076964 | 22.78° C | 40% | 1004.9 hPa | - | - | 49 W/m² | - |
* Rain since midnight (hover to see other rain measurements)
** Current wind speed in m/s (hover to see current wind gust speed)